Aérodrome :
LOGIN :

S'inscrire | Disclaimer

   EN    FR    IT 

 










Légende :    VFR   VFR Marginal   IFR   IFR Intensif   IFR Très Intensif
Visi : 
Plafond : 
>= 8 km
>= 3000ft
5 à 8 km
1000 à 3000 ft
1500m à 5 km
500 à 1000 ft
800 à 1500m
200 à 500 ft
< 800m
< 200 ft
Symboles :   Orages  Brouillard  Fortes neiges  Fortes précipitations  Vent > 20 kt
SIGMETs :   Divers  Orages  Givrage  Turbulence  Onde Orograph.  Cendres Volcan.






- Altitude de l'aérodrome : 622 ft
- Code IATA : BRS


EGGD - Bristol Int.

DERNIER METAR :
  • 151050Z AUTO 24015KT 9999 -RA SCT016/// BKN025/// //////CB 05/03 Q0995

METARs EXPIRÉS :
  • 151020Z AUTO 22010KT 9999 -RA FEW019/// BKN028/// BKN038/// //////TCU 06/03 Q0995
  • 150950Z AUTO 22010KT 9999 FEW038/// //////TCU 05/03 Q0994
  • 150920Z AUTO 21008KT 9999 SCT018/// BKN037/// //////TCU 05/03 Q0994
  • 150850Z AUTO 21010KT 9999 SCT019/// BKN023/// OVC031/// //////TCU 05/03 Q0993
  • 150820Z AUTO 21007KT 9999 BKN018 OVC028 05/03 Q0993

TAF TAF EGGD
Valide du 15 à 06h jusqu'au 16 à 06h UTC


150512Z 1506/1606 23020KT 9999 FEW010 SCT030
BECMG 1506/1509 20012KT
TEMPO 1506/1523 24018G28KT 6000 SHRA BKN010
PROB40
TEMPO 1506/1508 26025G40KT
PROB30
TEMPO 1506/1517 4000 +SHRA BKN008 BKN020CB
ATIS : +44 1275 473 666



MET'MAP, la Météo Aéronautique d'un coup d'oeil ! - Copyright ORBIFLY Décembre 2007 - Disclaimer

ORBIFLY MET'MAP TEAM :

Programmation & Développement : Alexandra Zaïnal
Sur une idée originale de : Baudouin d'Aumeries
Assistance à la programmation : Marc-Olivier Méhu
Soutien technique & logistique : Manuel Goepfert

Contact : metmap@orbifly.com




SOURCES & CREDITS :

   NOAA